Time;durP1;ratioP1;P1;durP2;ratioP2;P2;SDS_P1;SDS_P2;PMS_P1;PMS_P2;Temp;Humidity;BMP_temperature;BMP_pressure;BME280_temperature;BME280_humidity;BME280_pressure;Samples;Min_cycle;Max_cycle;Signal;HPM_P1;HPM_P2
2023/09/05 00:01:57;;;;;;;5.30;2.20;;;;;;;18.10;71.81;101525.72;5006313;28;20045;-61
2023/09/05 00:04:22;;;;;;;2.80;1.95;;;;;;;18.04;72.00;101534.59;5007201;28;20038;-61
2023/09/05 00:06:48;;;;;;;2.30;1.80;;;;;;;17.98;72.39;101529.53;5004437;28;20924;-61
2023/09/05 00:09:14;;;;;;;2.88;1.90;;;;;;;17.94;72.78;101530.50;5002590;28;20068;-61
2023/09/05 00:11:40;;;;;;;3.15;2.05;;;;;;;17.89;73.10;101538.47;5007817;28;20116;-61
2023/09/05 00:14:05;;;;;;;3.78;2.00;;;;;;;17.85;73.47;101534.22;5009669;28;20660;-61
2023/09/05 00:16:31;;;;;;;3.90;2.08;;;;;;;17.80;73.91;101533.47;5004710;28;20604;-61
2023/09/05 00:18:56;;;;;;;5.13;2.50;;;;;;;17.72;74.77;101535.38;5004803;28;20671;-61
2023/09/05 00:21:22;;;;;;;3.85;2.17;;;;;;;17.67;75.16;101526.81;5008288;28;20505;-61
2023/09/05 00:23:47;;;;;;;4.75;2.55;;;;;;;17.62;75.45;101525.22;5007299;28;20048;-61
2023/09/05 00:26:13;;;;;;;5.65;2.15;;;;;;;17.58;75.74;101526.19;5009696;28;20534;-61
2023/09/05 00:28:38;;;;;;;5.97;2.35;;;;;;;17.61;76.17;101523.47;5007695;28;20052;-61
2023/09/05 00:31:04;;;;;;;3.50;2.25;;;;;;;17.53;76.80;101512.38;5008708;28;20033;-61
2023/09/05 00:33:30;;;;;;;5.28;2.20;;;;;;;17.49;76.79;101511.59;5008066;28;20033;-61
2023/09/05 00:35:56;;;;;;;5.43;2.67;;;;;;;17.46;76.79;101502.94;5008734;28;20028;-61
2023/09/05 00:38:24;;;;;;;6.25;2.10;;;;;;;17.42;77.11;101497.81;5005896;28;20047;-61
2023/09/05 00:40:50;;;;;;;4.82;2.40;;;;;;;17.44;77.03;101495.16;4998978;28;20037;-61
2023/09/05 00:43:20;;;;;;;3.25;2.20;;;;;;;17.48;76.93;101483.75;5005252;28;20049;-61
2023/09/05 00:45:52;;;;;;;3.25;2.03;;;;;;;17.46;76.84;101495.13;5005567;28;20048;-61
2023/09/05 00:48:23;;;;;;;4.40;1.83;;;;;;;17.39;76.88;101491.81;5005413;28;20029;-61
2023/09/05 00:50:51;;;;;;;3.55;2.20;;;;;;;17.35;76.99;101485.81;5004966;28;20076;-61
2023/09/05 00:53:17;;;;;;;3.10;1.95;;;;;;;17.33;76.84;101490.19;5004554;28;20042;-61
2023/09/05 00:55:42;;;;;;;3.33;2.42;;;;;;;17.33;76.80;101484.13;5007251;28;20055;-61
2023/09/05 00:58:10;;;;;;;3.15;2.30;;;;;;;17.32;76.48;101479.78;5007045;28;20733;-61
2023/09/05 01:00:35;;;;;;;3.95;2.25;;;;;;;17.31;76.43;101478.91;5003026;28;20271;-61
2023/09/05 01:03:01;;;;;;;3.67;2.03;;;;;;;17.31;76.10;101475.44;5003697;28;20479;-61
2023/09/05 01:05:30;;;;;;;3.63;1.52;;;;;;;17.33;75.91;101473.69;4990301;28;20041;-61
2023/09/05 01:08:04;;;;;;;2.63;2.00;;;;;;;17.32;75.78;101478.03;4997893;28;20038;-61
2023/09/05 01:10:46;;;;;;;4.43;2.00;;;;;;;17.33;76.06;101474.50;5009051;28;20427;-61
2023/09/05 01:13:11;;;;;;;2.15;1.55;;;;;;;17.36;75.58;101473.59;5007805;28;20041;-61
2023/09/05 01:15:36;;;;;;;3.08;1.88;;;;;;;17.37;76.08;101483.13;5006621;28;20098;-61
2023/09/05 01:18:02;;;;;;;2.47;2.05;;;;;;;17.38;76.05;101477.03;5007383;28;20120;-61
2023/09/05 01:20:40;;;;;;;3.92;2.20;;;;;;;17.39;75.73;101476.13;5008815;28;20130;-61
2023/09/05 01:23:16;;;;;;;3.10;1.73;;;;;;;17.37;75.23;101465.72;5009949;28;20642;-60
2023/09/05 01:25:42;;;;;;;3.05;1.90;;;;;;;17.38;75.30;101462.22;5008344;28;20045;-61
2023/09/05 01:28:11;;;;;;;2.78;1.80;;;;;;;17.39;75.06;101466.50;5010748;28;20120;-61
2023/09/05 01:30:40;;;;;;;2.47;1.80;;;;;;;17.34;75.19;101463.16;5003594;28;20155;-61
2023/09/05 01:33:06;;;;;;;3.38;1.60;;;;;;;17.30;75.53;101463.31;5007694;28;20030;-61
2023/09/05 01:35:31;;;;;;;4.47;1.90;;;;;;;17.25;76.02;101472.97;5007452;28;20053;-61
2023/09/05 01:37:57;;;;;;;2.20;1.85;;;;;;;17.25;76.07;101476.47;5005711;28;20119;-61
2023/09/05 01:40:23;;;;;;;2.78;1.70;;;;;;;17.23;76.58;101467.81;5008477;28;20064;-61
2023/09/05 01:42:48;;;;;;;3.15;2.00;;;;;;;17.19;76.93;101473.13;5011780;28;20509;-61
2023/09/05 01:45:13;;;;;;;3.28;1.60;;;;;;;17.15;77.27;101472.38;5005004;28;20116;-61
2023/09/05 01:47:39;;;;;;;3.17;1.60;;;;;;;17.18;76.68;101460.97;5010360;28;20734;-61
2023/09/05 01:50:04;;;;;;;3.03;1.73;;;;;;;17.19;76.70;101465.28;5005785;28;20781;-61
2023/09/05 01:52:30;;;;;;;3.42;1.83;;;;;;;17.25;76.41;101452.94;5007275;28;20037;-61
2023/09/05 01:54:55;;;;;;;2.70;1.83;;;;;;;17.32;75.71;101454.53;5012620;28;20053;-60
2023/09/05 01:57:20;;;;;;;6.30;1.83;;;;;;;17.33;75.29;101450.16;5006419;28;20760;-60
2023/09/05 01:59:46;;;;;;;3.88;1.80;;;;;;;17.32;75.55;101453.66;5008513;28;20751;-60
2023/09/05 02:02:11;;;;;;;3.80;2.25;;;;;;;17.26;75.71;101462.50;5010098;28;20038;-61
2023/09/05 02:04:36;;;;;;;4.75;2.05;;;;;;;17.21;75.99;101467.00;5016914;28;20046;-61
2023/09/05 02:07:02;;;;;;;3.83;2.10;;;;;;;17.17;76.55;101472.31;5016214;28;20793;-61
2023/09/05 02:09:27;;;;;;;3.42;1.88;;;;;;;17.11;76.87;101468.09;5017850;28;20040;-61
2023/09/05 02:11:52;;;;;;;3.22;2.10;;;;;;;17.06;77.36;101471.72;5008110;28;20657;-61
2023/09/05 02:14:18;;;;;;;3.53;2.35;;;;;;;16.97;78.51;101485.00;5010640;28;20041;-61
2023/09/05 02:16:43;;;;;;;6.22;2.45;;;;;;;16.83;79.69;101475.72;5011350;28;20067;-61
2023/09/05 02:19:09;;;;;;;4.68;2.10;;;;;;;16.73;80.62;101475.94;5009075;28;20664;-61
2023/09/05 02:21:34;;;;;;;3.00;1.95;;;;;;;16.65;81.11;101463.03;5016164;28;20033;-61
2023/09/05 02:23:59;;;;;;;3.58;2.30;;;;;;;16.63;80.76;101453.53;5015432;28;20075;-61
2023/09/05 02:26:25;;;;;;;3.72;2.10;;;;;;;16.61;81.58;101461.41;5014777;28;20038;-61
2023/09/05 02:28:50;;;;;;;3.63;1.92;;;;;;;16.58;81.13;101458.88;5017614;28;20045;-61
2023/09/05 02:31:15;;;;;;;4.20;2.20;;;;;;;16.59;81.44;101457.94;5021144;28;20041;-61
2023/09/05 02:33:41;;;;;;;4.38;2.20;;;;;;;16.60;81.00;101457.06;5010468;28;20144;-61
2023/09/05 02:36:08;;;;;;;3.67;1.77;;;;;;;16.62;80.92;101457.88;5013192;28;20561;-61
2023/09/05 02:38:34;;;;;;;2.88;1.90;;;;;;;16.62;80.88;101455.28;5013783;28;20517;-61
2023/09/05 02:40:59;;;;;;;3.47;2.13;;;;;;;16.64;80.64;101460.47;5017131;28;20041;-61
2023/09/05 02:43:25;;;;;;;3.63;2.20;;;;;;;16.63;80.40;101457.00;5012723;28;20052;-61
2023/09/05 02:45:51;;;;;;;3.95;2.20;;;;;;;16.63;80.35;101458.75;5025616;28;20111;-61
2023/09/05 02:48:17;;;;;;;4.07;2.20;;;;;;;16.70;80.09;101457.72;5012719;28;20120;-61
2023/09/05 02:50:42;;;;;;;3.53;2.38;;;;;;;16.69;80.24;101456.00;5006539;28;20046;-60
2023/09/05 02:53:07;;;;;;;3.47;2.35;;;;;;;16.66;80.40;101446.50;5010969;28;20030;-61
2023/09/05 02:55:34;;;;;;;4.85;2.35;;;;;;;16.64;80.44;101448.28;5016559;28;20037;-60
2023/09/05 02:58:00;;;;;;;3.15;2.00;;;;;;;16.61;80.50;101447.50;5009817;28;20068;-60
2023/09/05 03:00:26;;;;;;;5.10;2.92;;;;;;;16.61;81.00;101447.50;5015028;28;20034;-61
2023/09/05 03:02:52;;;;;;;4.05;2.55;;;;;;;16.63;81.05;101450.91;5009602;28;20041;-60
2023/09/05 03:05:18;;;;;;;3.13;2.30;;;;;;;16.65;80.41;101441.31;5008751;28;20509;-61
2023/09/05 03:07:45;;;;;;;2.88;2.53;;;;;;;16.61;80.82;101444.88;5010242;28;20129;-61
2023/09/05 03:10:10;;;;;;;3.65;2.30;;;;;;;16.64;80.32;101442.19;5006554;28;20041;-61
2023/09/05 03:12:35;;;;;;;4.00;2.65;;;;;;;16.81;79.57;101437.47;5009493;28;20037;-61
2023/09/05 03:15:01;;;;;;;7.47;2.17;;;;;;;16.87;79.54;101437.34;5006904;28;20038;-61
2023/09/05 03:17:26;;;;;;;3.60;2.00;;;;;;;16.84;79.60;101443.50;5007667;28;20085;-61
2023/09/05 03:19:52;;;;;;;5.05;2.65;;;;;;;16.86;79.43;101435.59;5011143;28;20108;-61
2023/09/05 03:22:17;;;;;;;3.13;2.30;;;;;;;16.80;79.77;101449.66;5005223;28;20045;-61
2023/09/05 03:24:42;;;;;;;4.82;3.00;;;;;;;16.70;80.48;101448.16;5013669;28;20033;-61
2023/09/05 03:27:08;;;;;;;3.15;2.47;;;;;;;16.65;80.62;101449.16;5008780;28;20026;-61
2023/09/05 03:29:33;;;;;;;4.60;2.25;;;;;;;16.62;80.44;101447.44;5009494;28;20052;-61
2023/09/05 03:31:58;;;;;;;2.80;1.98;;;;;;;16.61;80.75;101442.28;5006064;28;20160;-61
2023/09/05 03:34:24;;;;;;;3.65;2.30;;;;;;;16.58;80.76;101452.78;5009584;28;20073;-61
2023/09/05 03:36:49;;;;;;;2.38;2.00;;;;;;;16.55;81.22;101456.31;5007374;28;20111;-61
2023/09/05 03:39:16;;;;;;;3.75;2.50;;;;;;;16.60;81.10;101450.97;5008974;28;20033;-61
2023/09/05 03:41:41;;;;;;;3.72;2.10;;;;;;;16.64;80.74;101450.91;5008327;28;20124;-60
2023/09/05 03:44:07;;;;;;;3.83;2.40;;;;;;;16.64;81.12;101453.50;5008537;28;20055;-60
2023/09/05 03:46:32;;;;;;;4.05;2.10;;;;;;;16.62;81.02;101450.06;5005789;28;20045;-61
2023/09/05 03:48:57;;;;;;;4.38;2.35;;;;;;;16.62;81.04;101454.44;5006119;28;20041;-61
2023/09/05 03:51:23;;;;;;;3.67;2.20;;;;;;;16.61;81.10;101450.97;5009372;28;20676;-61
2023/09/05 03:53:49;;;;;;;5.07;2.30;;;;;;;16.55;80.99;101445.88;5006109;28;20853;-61
2023/09/05 03:56:15;;;;;;;3.28;2.33;;;;;;;16.53;81.28;101446.81;5004959;28;20494;-61
2023/09/05 03:58:40;;;;;;;3.20;2.35;;;;;;;16.54;80.89;101436.31;5003589;28;20055;-61
2023/09/05 04:01:15;;;;;;;3.88;2.20;;;;;;;16.50;80.46;101439.91;5001312;28;20135;-61
2023/09/05 04:03:41;;;;;;;5.43;2.20;;;;;;;16.52;80.62;101437.25;5012200;28;20597;-61
2023/09/05 04:06:06;;;;;;;3.17;2.58;;;;;;;16.51;80.50;101439.00;5010184;28;20045;-61
2023/09/05 04:08:32;;;;;;;4.90;2.28;;;;;;;16.54;79.94;101441.53;5008364;28;20033;-61
2023/09/05 04:10:59;;;;;;;2.60;1.80;;;;;;;16.54;79.91;101436.31;5002819;28;20503;-61
2023/09/05 04:13:28;;;;;;;5.50;2.40;;;;;;;16.54;79.88;101433.72;5004765;28;20037;-60
2023/09/05 04:15:54;;;;;;;2.40;1.73;;;;;;;16.52;80.00;101434.66;5005425;28;20570;-61
2023/09/05 04:18:19;;;;;;;5.53;2.50;;;;;;;16.50;79.89;101433.81;5006449;28;20042;-61
2023/09/05 04:20:45;;;;;;;3.88;2.10;;;;;;;16.47;79.99;101439.97;5002555;28;20041;-60
2023/09/05 04:23:10;;;;;;;2.92;2.08;;;;;;;16.43;80.37;101438.31;5006713;28;20046;-61
2023/09/05 04:25:39;;;;;;;4.72;2.15;;;;;;;16.41;80.46;101434.88;5005204;28;20044;-61
2023/09/05 04:28:06;;;;;;;6.32;2.25;;;;;;;16.39;80.58;101441.88;5000409;28;20045;-60
2023/09/05 04:30:33;;;;;;;3.45;2.42;;;;;;;16.37;80.46;101458.44;4988461;28;20042;-61
2023/09/05 04:32:58;;;;;;;5.18;2.65;;;;;;;16.35;81.12;101452.41;5003408;28;20022;-61
2023/09/05 04:35:23;;;;;;;6.28;2.60;;;;;;;16.33;81.43;101452.44;5000838;28;20048;-61
2023/09/05 04:37:52;;;;;;;5.40;2.38;;;;;;;16.30;81.58;101455.97;5010482;28;20037;-61
2023/09/05 04:40:18;;;;;;;3.53;2.05;;;;;;;16.29;81.34;101459.47;5007311;28;20041;-61
2023/09/05 04:42:43;;;;;;;3.20;1.88;;;;;;;16.29;81.38;101458.63;5007902;28;20487;-61
2023/09/05 04:45:09;;;;;;;3.05;2.03;;;;;;;16.28;81.29;101457.75;5007415;28;20076;-61
2023/09/05 04:47:35;;;;;;;5.85;2.72;;;;;;;16.29;80.93;101467.28;5007263;28;20036;-60
2023/09/05 04:50:00;;;;;;;2.97;2.15;;;;;;;16.28;80.96;101462.13;5006088;28;20041;-60
2023/09/05 04:52:28;;;;;;;6.25;2.40;;;;;;;16.27;81.26;101461.25;5003144;28;20511;-61
2023/09/05 04:54:55;;;;;;;4.47;2.28;;;;;;;16.28;81.08;101465.59;5003728;28;20038;-61
2023/09/05 04:57:20;;;;;;;3.72;2.35;;;;;;;16.26;81.18;101472.59;5018909;28;20513;-61
2023/09/05 04:59:49;;;;;;;2.90;2.28;;;;;;;16.28;81.11;101472.56;5013878;28;20033;-61
2023/09/05 05:02:15;;;;;;;4.47;2.58;;;;;;;16.27;81.49;101474.28;5011119;28;20107;-61
2023/09/05 05:04:42;;;;;;;3.40;2.42;;;;;;;16.28;81.40;101468.19;5017746;28;20084;-61
2023/09/05 05:07:08;;;;;;;3.70;2.40;;;;;;;16.28;81.73;101476.03;5008877;28;20091;-61
2023/09/05 05:09:34;;;;;;;2.63;1.92;;;;;;;16.28;81.58;101475.16;5013657;28;20041;-61
2023/09/05 05:12:00;;;;;;;2.78;2.00;;;;;;;16.26;81.99;101475.22;5014403;28;20068;-61
2023/09/05 05:14:25;;;;;;;3.03;2.15;;;;;;;16.29;82.18;101484.72;5024370;28;20758;-61
2023/09/05 05:16:50;;;;;;;3.13;2.22;;;;;;;16.30;82.08;101481.19;5012482;28;20040;-61
2023/09/05 05:19:16;;;;;;;2.45;1.88;;;;;;;16.31;82.10;101493.38;5007417;28;20119;-61
2023/09/05 05:21:41;;;;;;;3.15;2.28;;;;;;;16.33;82.18;101494.19;5029452;28;20047;-61
2023/09/05 05:24:07;;;;;;;3.65;2.40;;;;;;;16.36;81.93;101491.50;5014329;28;20033;-61
2023/09/05 05:26:32;;;;;;;3.05;2.40;;;;;;;16.38;82.31;101492.34;5007184;28;20498;-61
2023/09/05 05:28:58;;;;;;;5.38;2.25;;;;;;;16.42;82.05;101482.69;5014271;28;20406;-61
2023/09/05 05:31:24;;;;;;;2.80;1.77;;;;;;;16.46;81.78;101482.63;5016630;28;20152;-61
2023/09/05 05:33:49;;;;;;;4.97;2.55;;;;;;;16.48;81.65;101483.44;5004581;28;20045;-61
2023/09/05 05:36:15;;;;;;;4.90;2.13;;;;;;;16.51;81.64;101485.09;5007320;28;20029;-60
2023/09/05 05:38:41;;;;;;;2.92;2.00;;;;;;;16.57;81.06;101484.97;5011394;28;20042;-61
2023/09/05 05:41:10;;;;;;;3.38;2.03;;;;;;;16.62;80.93;101485.75;5005617;28;20134;-61
2023/09/05 05:43:36;;;;;;;3.25;2.22;;;;;;;16.69;80.77;101482.97;5003243;28;20069;-60
2023/09/05 05:46:02;;;;;;;3.03;2.10;;;;;;;16.74;80.74;101481.09;5009177;28;20073;-61
2023/09/05 05:48:28;;;;;;;4.47;2.22;;;;;;;16.79;80.88;101481.06;5010560;28;21760;-61
2023/09/05 05:50:55;;;;;;;5.90;2.72;;;;;;;16.83;80.77;101490.50;5013799;28;20025;-61
2023/09/05 05:53:21;;;;;;;4.40;2.10;;;;;;;16.91;80.50;101485.13;5020290;28;20088;-61
2023/09/05 05:55:47;;;;;;;3.60;2.58;;;;;;;16.98;80.44;101490.16;5015594;28;20112;-61
2023/09/05 05:58:13;;;;;;;4.78;2.35;;;;;;;17.06;80.10;101488.25;5007204;28;20176;-61
2023/09/05 06:00:44;;;;;;;3.50;2.50;;;;;;;17.13;79.94;101486.34;5008961;28;20061;-61
2023/09/05 06:03:11;;;;;;;3.50;2.30;;;;;;;17.17;80.29;101495.84;5014890;28;20466;-61
2023/09/05 06:05:37;;;;;;;5.18;2.25;;;;;;;17.24;79.80;101490.44;5005840;28;20045;-61
2023/09/05 06:08:02;;;;;;;5.60;2.28;;;;;;;17.31;79.92;101498.97;5009965;28;20038;-60
2023/09/05 06:10:27;;;;;;;4.57;2.30;;;;;;;17.38;79.97;101500.53;5008349;28;20128;-61
2023/09/05 06:12:53;;;;;;;5.68;2.60;;;;;;;17.43;79.94;101503.91;5009677;28;20100;-61
2023/09/05 06:15:19;;;;;;;4.85;2.20;;;;;;;17.48;79.83;101494.22;5012967;28;20039;-61
2023/09/05 06:17:44;;;;;;;3.25;2.30;;;;;;;17.54;79.72;101499.28;5011075;28;20515;-61
2023/09/05 06:20:10;;;;;;;3.90;2.47;;;;;;;17.63;79.43;101488.56;5015276;28;20046;-60
2023/09/05 06:22:35;;;;;;;3.28;2.30;;;;;;;17.71;79.18;101494.47;5005991;28;20410;-61
2023/09/05 06:25:01;;;;;;;3.40;2.10;;;;;;;17.80;79.01;101494.22;5007400;28;20045;-61
2023/09/05 06:27:27;;;;;;;5.00;2.50;;;;;;;17.86;78.90;101496.72;5018799;28;20068;-61
2023/09/05 06:29:52;;;;;;;3.40;2.22;;;;;;;17.97;78.41;101484.19;5003011;28;20378;-61
2023/09/05 06:32:17;;;;;;;5.75;2.50;;;;;;;18.06;77.77;101477.00;5010657;28;20151;-61
2023/09/05 06:34:43;;;;;;;4.50;2.33;;;;;;;18.26;76.69;101480.75;5009902;28;20160;-61
2023/09/05 06:37:09;;;;;;;2.90;2.47;;;;;;;18.36;76.50;101483.97;5008729;28;20080;-61
2023/09/05 06:39:35;;;;;;;3.13;2.17;;;;;;;18.37;76.87;101483.91;5012614;28;20515;-61
2023/09/05 06:42:00;;;;;;;5.10;2.22;;;;;;;18.45;76.40;101486.34;5007066;28;20046;-61
2023/09/05 06:44:29;;;;;;;2.78;1.80;;;;;;;18.47;77.04;101485.38;5001627;28;20067;-61
2023/09/05 06:46:54;;;;;;;4.15;2.35;;;;;;;18.56;76.77;101486.88;5007532;28;20307;-61
2023/09/05 06:49:20;;;;;;;3.08;2.08;;;;;;;18.60;76.97;101483.25;5007318;28;20889;-61
2023/09/05 06:51:45;;;;;;;3.10;2.22;;;;;;;18.67;76.59;101491.78;5006315;28;20819;-61
2023/09/05 06:54:10;;;;;;;3.40;2.50;;;;;;;18.72;76.53;101485.50;5008333;28;20060;-62
2023/09/05 06:56:36;;;;;;;2.72;2.05;;;;;;;18.76;76.42;101492.34;5012764;28;20064;-60
2023/09/05 06:59:01;;;;;;;3.47;2.10;;;;;;;18.90;75.25;101482.38;5002683;28;20133;-61
2023/09/05 07:01:28;;;;;;;3.85;1.95;;;;;;;19.02;73.56;101466.25;5005542;28;20144;-61
2023/09/05 07:03:53;;;;;;;6.90;2.70;;;;;;;19.17;73.49;101475.38;5009944;28;20039;-61
2023/09/05 07:06:19;;;;;;;6.07;2.55;;;;;;;19.28;72.64;101469.78;5011695;28;20033;-61
2023/09/05 07:08:46;;;;;;;4.57;2.53;;;;;;;19.42;71.62;101467.56;5014242;28;20041;-61
2023/09/05 07:11:12;;;;;;;5.50;2.33;;;;;;;19.46;72.39;101479.66;5012636;28;20044;-61
2023/09/05 07:13:37;;;;;;;3.13;2.22;;;;;;;19.61;70.62;101452.91;5006113;28;20034;-60
2023/09/05 07:16:02;;;;;;;3.53;2.15;;;;;;;19.77;70.13;101448.00;5001913;28;20887;-61
2023/09/05 07:18:28;;;;;;;5.50;2.30;;;;;;;19.78;71.23;101471.53;5005233;28;20028;-60
2023/09/05 07:20:53;;;;;;;5.38;2.30;;;;;;;19.80;71.33;101475.00;5006331;28;20862;-61
2023/09/05 07:23:18;;;;;;;4.22;2.30;;;;;;;19.92;70.86;101461.44;5003143;28;20162;-61
2023/09/05 07:25:44;;;;;;;4.90;2.10;;;;;;;19.91;71.23;101469.38;5015055;28;20381;-60
2023/09/05 07:28:10;;;;;;;5.88;2.45;;;;;;;19.94;71.11;101464.88;5013569;28;20091;-61
2023/09/05 07:30:35;;;;;;;4.72;2.47;;;;;;;20.11;70.01;101454.63;5015239;28;20747;-61
2023/09/05 07:33:01;;;;;;;4.70;2.25;;;;;;;20.12;70.57;101468.63;5011672;28;20122;-61
2023/09/05 07:35:26;;;;;;;3.90;2.05;;;;;;;20.16;71.17;101480.69;5014075;28;20526;-61
2023/09/05 07:37:51;;;;;;;3.60;2.08;;;;;;;20.25;70.73;101464.59;5010125;28;20037;-61
2023/09/05 07:40:17;;;;;;;4.47;2.30;;;;;;;20.32;70.91;101483.63;5013677;28;20041;-61
2023/09/05 07:42:43;;;;;;;4.38;2.13;;;;;;;20.36;71.52;101480.84;5007874;28;20061;-60
2023/09/05 07:45:11;;;;;;;4.22;2.22;;;;;;;20.55;70.09;101476.59;5017396;28;20025;-61
2023/09/05 07:47:37;;;;;;;2.60;2.13;;;;;;;20.59;70.12;101472.94;5019346;28;20043;-61
2023/09/05 07:50:03;;;;;;;5.25;2.47;;;;;;;20.70;69.02;101462.03;5024885;28;20041;-61
2023/09/05 07:52:28;;;;;;;3.65;2.20;;;;;;;20.81;68.46;101451.97;5015905;28;20124;-61
2023/09/05 07:54:54;;;;;;;4.20;2.20;;;;;;;20.95;68.03;101448.78;5014640;28;20033;-60
2023/09/05 07:57:19;;;;;;;6.85;2.45;;;;;;;21.17;66.34;101423.31;5016864;28;20060;-60
2023/09/05 07:59:44;;;;;;;6.25;2.58;;;;;;;21.36;64.99;101405.00;5015394;28;20041;-61
2023/09/05 08:02:10;;;;;;;4.13;2.17;;;;;;;21.47;64.65;101411.50;5011755;28;20085;-61
2023/09/05 08:04:38;;;;;;;3.50;2.15;;;;;;;21.65;63.92;101402.00;5010996;28;20033;-61
2023/09/05 08:07:04;;;;;;;3.88;2.15;;;;;;;21.75;62.97;101383.13;5003857;28;20061;-61
2023/09/05 08:09:29;;;;;;;5.50;2.40;;;;;;;21.78;62.79;101392.66;5023073;28;20741;-60
2023/09/05 08:11:55;;;;;;;3.40;2.40;;;;;;;21.94;60.68;101356.81;5025755;28;20116;-61
2023/09/05 08:14:20;;;;;;;4.60;2.60;;;;;;;22.07;58.79;101346.56;5024595;28;20045;-61
2023/09/05 08:16:46;;;;;;;2.55;2.10;;;;;;;22.21;59.02;101346.78;5015437;28;20743;-60
2023/09/05 08:19:11;;;;;;;4.53;2.00;;;;;;;22.31;59.02;101359.44;5006263;28;20038;-61
2023/09/05 08:21:36;;;;;;;3.80;2.33;;;;;;;22.39;58.41;101352.97;5010777;28;20467;-61
2023/09/05 08:24:02;;;;;;;3.42;2.35;;;;;;;22.46;58.28;101359.66;5010179;28;20033;-61
2023/09/05 08:26:27;;;;;;;3.25;1.98;;;;;;;22.66;56.74;101330.56;5011008;28;20051;-60
2023/09/05 08:28:53;;;;;;;5.05;2.30;;;;;;;22.74;56.42;101333.69;5023666;28;20045;-61
2023/09/05 08:31:19;;;;;;;3.28;2.33;;;;;;;22.93;55.48;101329.19;5007061;28;20040;-61
2023/09/05 08:33:45;;;;;;;3.38;2.05;;;;;;;23.03;54.76;101314.63;5026048;28;20487;-61
2023/09/05 08:36:10;;;;;;;4.38;2.17;;;;;;;23.06;55.22;101324.16;5014005;28;20044;-61
2023/09/05 08:38:39;;;;;;;3.20;2.13;;;;;;;23.31;54.49;101308.78;5011204;28;20061;-61
2023/09/05 08:41:06;;;;;;;3.08;2.10;;;;;;;23.27;54.67;101321.28;5016852;28;20210;-61
2023/09/05 08:43:32;;;;;;;4.13;2.15;;;;;;;23.26;56.13;101338.06;5005805;28;20042;-61
2023/09/05 08:46:02;;;;;;;3.42;2.53;;;;;;;23.25;55.78;101331.06;5011793;28;20048;-61
2023/09/05 08:48:28;;;;;;;4.20;2.25;;;;;;;23.35;54.66;101323.53;5009587;28;20040;-63
2023/09/05 08:50:55;;;;;;;3.50;2.00;;;;;;;23.62;53.63;101308.03;5009053;28;20040;-65
2023/09/05 08:53:25;;;;;;;4.25;2.03;;;;;;;23.60;53.73;101297.53;5008427;28;20072;-65
2023/09/05 08:55:51;;;;;;;2.53;2.15;;;;;;;23.83;53.13;101296.31;5016258;28;20549;-65
2023/09/05 08:58:17;;;;;;;4.60;2.30;;;;;;;23.88;53.14;101299.53;5006551;28;20138;-65
2023/09/05 09:00:43;;;;;;;3.42;2.08;;;;;;;23.96;52.67;101298.22;5011733;28;20034;-64
2023/09/05 09:03:09;;;;;;;3.03;1.83;;;;;;;23.87;53.15;101301.31;5009378;28;20036;-65
2023/09/05 09:05:36;;;;;;;3.50;1.63;;;;;;;23.93;51.94;101284.28;5007054;28;20035;-64
2023/09/05 09:08:02;;;;;;;4.45;2.13;;;;;;;23.95;53.17;101303.59;5010982;28;20117;-65
2023/09/05 09:10:27;;;;;;;6.43;2.53;;;;;;;24.08;51.85;101282.63;5009617;28;20045;-64
2023/09/05 09:12:54;;;;;;;4.15;1.88;;;;;;;24.15;52.67;101302.47;5003983;28;20042;-64
2023/09/05 09:15:24;;;;;;;4.07;1.90;;;;;;;24.14;53.69;101327.19;5012456;28;20036;-64
2023/09/05 09:17:50;;;;;;;2.58;2.05;;;;;;;24.34;50.78;101266.16;5005538;28;20085;-64
2023/09/05 09:20:18;;;;;;;2.58;1.90;;;;;;;24.49;51.78;101281.13;5007013;28;20059;-64
2023/09/05 09:22:44;;;;;;;2.85;1.98;;;;;;;24.53;51.44;101277.34;5005901;28;20049;-65
2023/09/05 09:25:14;;;;;;;4.50;1.73;;;;;;;24.59;49.97;101260.28;5006580;28;20406;-64
2023/09/05 09:27:42;;;;;;;4.00;1.80;;;;;;;24.63;51.33;101272.41;5019076;28;20031;-64
2023/09/05 09:30:09;;;;;;;2.58;2.00;;;;;;;24.73;51.23;101277.06;5019761;28;20610;-64
2023/09/05 09:32:36;;;;;;;2.42;1.67;;;;;;;24.76;50.43;101252.28;5014667;28;20391;-64
2023/09/05 09:35:07;;;;;;;2.88;2.00;;;;;;;24.83;49.84;101241.22;5010769;28;20037;-64
2023/09/05 09:37:33;;;;;;;3.92;1.88;;;;;;;25.03;49.49;101245.28;5017685;28;20033;-64
2023/09/05 09:40:00;;;;;;;3.88;1.77;;;;;;;25.17;50.29;101253.28;5018842;28;20107;-64
2023/09/05 09:42:27;;;;;;;3.33;1.50;;;;;;;25.21;48.43;101217.72;5022577;28;20045;-63
2023/09/05 09:44:53;;;;;;;2.90;1.75;;;;;;;25.24;47.60;101216.69;5007016;28;20499;-63
2023/09/05 09:47:19;;;;;;;2.83;1.83;;;;;;;25.23;48.53;101217.63;5008804;28;20055;-64
2023/09/05 09:49:48;;;;;;;4.05;2.03;;;;;;;25.28;48.96;101234.06;5006171;28;20680;-65
2023/09/05 09:52:16;;;;;;;2.53;1.83;;;;;;;25.37;49.11;101236.16;5012913;28;20521;-65
2023/09/05 09:54:44;;;;;;;3.63;1.90;;;;;;;25.32;49.47;101236.44;5007535;28;20052;-65
2023/09/05 09:57:14;;;;;;;5.53;1.77;;;;;;;25.37;49.49;101234.38;5014313;28;20358;-65
2023/09/05 09:59:50;;;;;;;4.72;1.80;;;;;;;25.42;49.87;101242.03;5018278;28;20120;-65
2023/09/05 10:02:16;;;;;;;2.30;1.70;;;;;;;25.41;49.13;101233.25;5015114;28;20075;-66
2023/09/05 10:04:43;;;;;;;3.30;1.65;;;;;;;25.50;48.57;101216.78;5008076;28;20550;-64
2023/09/05 10:07:16;;;;;;;2.50;1.80;;;;;;;25.57;49.78;101231.34;5009850;28;20041;-64
2023/09/05 10:09:43;;;;;;;2.70;2.00;;;;;;;25.73;48.70;101202.09;5005508;28;20022;-63
2023/09/05 10:12:09;;;;;;;2.95;1.90;;;;;;;25.76;48.91;101220.44;5003230;28;20033;-64
2023/09/05 10:14:37;;;;;;;3.20;1.70;;;;;;;25.78;49.17;101223.81;5009850;28;20654;-63
2023/09/05 10:17:03;;;;;;;4.05;1.88;;;;;;;25.86;48.67;101213.59;5007930;28;20668;-64
2023/09/05 10:19:30;;;;;;;3.22;1.80;;;;;;;25.92;49.41;101218.47;5010327;28;20045;-63
2023/09/05 10:21:57;;;;;;;3.08;1.95;;;;;;;25.96;49.48;101225.28;5007433;28;20034;-64
2023/09/05 10:24:29;;;;;;;2.92;1.83;;;;;;;26.03;48.79;101209.84;5008935;28;20029;-64
2023/09/05 10:26:55;;;;;;;5.00;1.95;;;;;;;26.08;48.53;101200.66;5007068;28;20196;-64
2023/09/05 10:29:42;;;;;;;3.25;1.38;;;;;;;26.17;47.26;101173.56;5007571;28;20554;-64
2023/09/05 10:32:09;;;;;;;2.78;1.20;;;;;;;26.35;46.30;101171.50;5007486;28;20042;-63
2023/09/05 10:34:58;;;;;;;3.92;1.52;;;;;;;26.42;46.92;101182.53;5002779;28;22284;-64
2023/09/05 10:37:33;;;;;;;4.05;1.60;;;;;;;26.48;46.88;101182.13;5007854;28;20046;-64
2023/09/05 10:40:07;;;;;;;2.95;1.52;;;;;;;26.57;46.90;101182.31;5008805;28;20045;-64
2023/09/05 10:42:34;;;;;;;5.22;1.73;;;;;;;26.61;47.69;101206.84;5012249;28;20028;-63
2023/09/05 10:45:28;;;;;;;1.77;1.52;;;;;;;26.72;46.14;101178.63;5003805;28;21060;-64
2023/09/05 10:47:59;;;;;;;2.13;1.55;;;;;;;26.83;47.00;101191.19;4985313;28;20046;-64
2023/09/05 10:50:28;;;;;;;;;;;;;;;26.88;45.99;101178.47;5010877;28;20095;-64
2023/09/05 10:53:16;;;;;;;3.25;1.77;;;;;;;26.95;47.24;101198.31;5009240;28;19921;-64
2023/09/05 10:55:46;;;;;;;2.35;1.52;;;;;;;26.96;46.50;101165.50;5013491;28;20094;-64
2023/09/05 10:58:45;;;;;;;2.05;1.52;;;;;;;27.03;45.42;101156.16;5011743;28;20125;-64
2023/09/05 11:01:29;;;;;;;2.03;1.48;;;;;;;27.16;45.16;101140.22;5011943;28;20110;-64
2023/09/05 11:04:19;;;;;;;2.45;1.67;;;;;;;27.24;45.10;101145.81;5010993;28;20056;-64
2023/09/05 11:06:55;;;;;;;3.45;1.52;;;;;;;27.31;45.69;101151.56;5004602;28;20048;-63
2023/09/05 11:09:21;;;;;;;2.42;1.60;;;;;;;27.28;45.80;101153.44;5012089;28;20766;-60
2023/09/05 11:11:46;;;;;;;3.53;1.65;;;;;;;27.40;44.27;101130.47;5012365;28;20056;-61
2023/09/05 11:14:11;;;;;;;1.60;1.25;;;;;;;27.42;45.15;101143.66;5014110;28;20038;-60
2023/09/05 11:16:49;;;;;;;2.67;1.60;;;;;;;27.53;43.95;101130.47;5014027;28;20042;-60
2023/09/05 11:19:42;;;;;;;2.42;1.30;;;;;;;27.63;43.62;101124.38;5013309;28;20045;-61
2023/09/05 11:22:11;;;;;;;2.65;1.55;;;;;;;27.67;44.23;101131.16;5025150;28;20088;-61
2023/09/05 11:24:47;;;;;;;3.45;1.67;;;;;;;27.70;44.12;101132.72;5017304;28;20099;-61